Aviation Digital Data Service (ADDS)

Output produced by METARs form (1114 UTC 16 April 2014)
found at http://aviationweather.gov/adds/metars/
 
KSAN 160905Z 1609/1712 VRB04KT P6SM OVC012 
     FM161700 VRB04KT P6SM SCT012 
     FM161900 29010KT P6SM SKC 
     FM170100 VRB04KT P6SM FEW012 
     FM170400 VRB04KT P6SM OVC012